Station: Edithburgh  

  Atmospheric Gas Attenuation - ITU Rec 676-11   ----------------- dB/100km -----------------
Date Time Temp RH % AH g/m3 Dew Point Wind Direction Speed kph Gust kph Barometer mB Rainfall Since 9am 24GHz 47GHz 76GHz 122GHz 134GHz 241GHz
06/05 23:50 13.2 50 5.74 3 35 43 1027.8 1.6 13.5 22.2 29.7 77.2 63.9 217.3
06/05 23:40 13.3 49 5.66 2.8 39 44 1027.8 1.6 13.4 22.0 29.4 76.4 62.9 213.6
06/05 23:30 13.3 49 5.66 2.8 37 50 1027.7 1.6 13.4 22.0 29.4 76.4 62.9 213.6
06/05 23:20 13.5 53 6.2 4.1 35 43 1027.7 1.6 14.5 22.8 31.3 81.5 69.2 236.0
06/05 23:10 13.7 56 6.63 5.1 30 35 1027.6 1.6 15.4 23.4 32.8 85.5 74.3 254.0
06/05 23:00 13.7 56 6.63 5.1 33 50 1027.5 1.6 15.4 23.4 32.8 85.5 74.3 254.0
06/05 22:50 13.9 55 6.59 5.2 35 43 1027.3 1.6 15.3 23.2 32.6 84.9 73.6 251.6
06/05 22:40 13.9 59 7.07 6.2 28 35 1027.3 1.6 16.3 24.0 34.4 89.7 79.6 272.5
06/05 22:30 13.9 60 7.19 6.3 32 46 1027.2 1.6 16.6 24.1 34.8 90.9 81.1 277.8
06/05 22:20 13.9 57 6.83 5.5 28 32 1027.2 1.6 15.8 23.6 33.4 87.3 76.6 262.0
06/05 22:10 13.8 55 6.55 4.9 24 33 1027.2 1.6 15.2 23.2 32.4 84.6 73.2 250.1
06/05 22:00 13.9 52 6.23 4.2 33 46 1027.1 1.6 14.5 22.7 31.2 81.3 69.2 236.0
06/05 21:50 13.9 57 6.83 5.5 32 39 1026.9 1.6 15.8 23.6 33.4 87.3 76.6 261.9
06/05 21:40 14 57 6.88 5.6 32 37 1026.9 1.6 15.9 23.6 33.6 87.7 77.1 263.8
06/05 21:30 13.8 53 6.32 4.4 32 43 1026.8 1.6 14.7 22.8 31.6 82.3 70.4 240.1
06/05 21:20 13.7 58 6.87 5.6 35 44 1026.7 1.6 15.9 23.7 33.7 87.9 77.3 264.3
06/05 21:10 13.8 59 7.03 6.1 30 33 1026.6 1.6 16.2 23.9 34.2 89.4 79.2 270.9
06/05 21:00 13.7 58 6.87 5.6 35 48 1026.5 1.6 15.9 23.7 33.7 87.8 77.3 264.2
06/05 20:50 13.6 59 6.94 5.7 33 39 1026.4 1.6 16.1 23.8 34.0 88.7 78.2 267.6
06/05 20:40 13.8 59 7.03 5.9 37 44 1026.3 1.6 16.2 23.9 34.2 89.3 79.1 270.9
06/05 20:30 13.9 62 7.43 6.7 33 44 1026.2 1.6 17.1 24.5 35.7 93.3 84.1 288.3
06/05 20:20 14.3 63 7.74 7.3 35 43 1026.2 1.6 17.7 24.9 36.7 96.1 87.6 300.7
06/05 20:10 14 62 7.48 7 33 39 1026.1 1.6 17.2 24.5 35.8 93.7 84.6 290.1
06/05 20:00 14 62 7.48 6.8 37 44 1026 1.6 17.2 24.5 35.8 93.7 84.6 290.1
06/05 19:50 14.1 67 8.13 8.2 35 43 1025.8 1.6 18.6 25.5 38.3 100.4 92.9 319.0
06/05 19:40 14.2 70 8.55 8.8 32 39 1025.7 1.6 19.4 26.2 40.0 104.7 98.2 337.9
06/05 19:30 14.3 72 8.85 9.3 35 46 1025.6 1.6 20.1 26.6 41.1 107.8 102.1 351.4
06/05 19:20 14.3 76 9.34 10.1 33 41 1025.5 1.6 21.1 27.4 43.1 113.1 108.7 374.4
06/05 19:10 14.3 80 9.83 10.9 33 41 1025.4 1.6 22.2 28.2 45.1 118.6 115.4 397.9
06/05 19:00 14.2 79 9.65 10.6 32 44 1025.2 1.6 21.8 28.0 44.4 116.7 113.0 389.6
06/05 18:50 14.4 80 9.89 11 33 41 1025.1 1.6 22.3 28.3 45.3 119.0 116.0 400.2
06/05 18:40 14.4 80 9.89 11 35 44 1024.9 1.6 22.3 28.3 45.3 119.0 116.0 400.1
06/05 18:30 14.5 81 10.07 11.3 33 44 1024.8 1.6 22.7 28.6 46.0 120.9 118.4 408.3
06/05 18:20 14.4 83 10.26 11.5 35 43 1024.6 1.6 23.1 28.9 46.9 123.2 121.1 418.0
06/05 18:10 14.4 85 10.51 11.9 28 32 1024.4 1.6 23.6 29.3 47.9 126.0 124.6 430.2
06/05 18:00 14.4 85 10.51 11.9 32 41 1024.3 1.6 23.6 29.3 47.9 126.0 124.6 430.2
06/05 17:50 14.3 86 10.57 12 37 43 1024 1.6 23.8 29.5 48.2 126.8 125.6 433.6
06/05 17:40 14.3 87 10.69 12.1 41 46 1023.9 1.6 24.0 29.7 48.7 128.2 127.3 439.5
06/05 17:30 14.5 89 11.07 12.7 30 44 1023.8 1.6 24.8 30.3 50.3 132.2 132.4 457.3
06/05 17:20 14.1 92 11.17 12.8 30 33 1023.7 1.6 25.1 30.6 51.0 134.1 134.5 464.7
06/05 17:10 14.4 92 11.37 13.1 26 30 1023.6 1.6 25.5 30.8 51.6 135.9 136.9 472.9
06/05 17:00 14.4 91 11.25 13 33 44 1023.6 1.6 25.2 30.6 51.1 134.5 135.1 466.9
06/05 16:50 14.8 91 11.53 13.3 35 41 1023.3 1.6 25.8 30.9 52.1 137.0 138.4 478.5
06/05 16:40 15.2 87 11.29 13 35 41 1023.2 1.6 25.3 30.4 50.7 133.5 134.2 463.9
06/05 16:30 16.6 74 10.45 12 37 52 1023 0.4 23.4 28.5 46.3 121.7 120.2 414.9
06/05 16:20 17.4 65 9.63 10.7 26 35 1022.7 0.4 21.6 26.8 42.5 111.5 108.0 372.4
06/05 16:10 17.7 62 9.35 10.5 28 33 1022.7 0.4 21.0 26.3 41.2 108.2 103.9 358.2
06/05 16:00 18.6 64 10.19 11.7 24 35 1022.6 0.4 22.7 27.4 44.1 115.8 113.6 392.3
06/05 15:50 18 65 9.98 11.5 28 30 1022.6 0.4 22.3 27.2 43.6 114.4 111.7 385.6
06/05 15:40 18.1 66 10.2 11.6 28 37 1022.5 0.4 22.8 27.5 44.4 116.6 114.5 395.2
06/05 15:30 18.4 65 10.22 11.7 30 39 1022.4 0.4 22.8 27.5 44.3 116.4 114.3 394.6
06/05 15:20 18.4 60 9.44 10.5 33 41 1022.4 0.4 21.1 26.2 41.2 108.1 104.1 359.1
06/05 15:10 18.5 61 9.65 10.8 33 37 1022.3 0.4 21.6 26.5 42.0 110.2 106.7 368.0
06/05 15:00 18.4 60 9.44 10.5 30 41 1022.2 0.4 21.1 26.2 41.2 108.1 104.1 359.0
06/05 14:50 18.9 63 10.21 11.7 28 37 1022.3 0.4 22.7 27.3 44.0 115.5 113.4 391.6
06/05 14:40 19 56 9.13 10 26 33 1022.2 0.4 20.4 25.6 39.7 104.1 99.4 342.5
06/05 14:30 19 56 9.13 10 30 39 1022.1 0.4 20.4 25.6 39.7 104.1 99.4 342.5
06/05 14:20 18.8 57 9.18 10.1 24 30 1022.1 0.4 20.6 25.7 40.0 104.9 100.3 345.6
06/05 14:10 19 56 9.13 10 32 43 1022.1 0.4 20.4 25.6 39.7 104.1 99.4 342.5
06/05 14:00 18.9 56 9.07 9.9 32 46 1022.1 0.4 20.3 25.5 39.5 103.6 98.8 340.3
06/05 13:50 18.6 57 9.07 10.1 32 41 1021.9 0.4 20.3 25.6 39.6 104.0 99.1 341.5
06/05 13:40 18.4 55 8.65 9.2 35 44 1021.9 0.4 19.5 25.0 38.1 99.9 94.1 323.9
06/05 13:30 18.8 57 9.18 10.1 35 46 1022 0.4 20.6 25.7 40.0 104.8 100.3 345.6
06/05 13:20 17.6 62 9.3 10.4 33 39 1022.2 0.4 20.9 26.2 41.0 107.7 103.4 356.3
06/05 13:10 17.8 64 9.71 10.9 32 39 1022.2 0.4 21.7 26.8 42.6 111.8 108.4 374.0
06/05 13:00 18 65 9.98 11.3 35 46 1022.3 0.4 22.3 27.2 43.5 114.4 111.7 385.5
06/05 12:50 18.4 69 10.85 12.6 32 39 1022.4 0.4 24.1 28.5 46.8 123.2 122.7 424.0
06/05 12:40 18.1 70 10.81 12.5 26 30 1022.5 0.4 24.1 28.5 46.9 123.2 122.6 423.8
06/05 12:30 17.9 74 11.3 13.2 28 37 1022.6 0.4 25.1 29.4 49.0 129.0 129.7 448.3
06/05 12:20 17.3 80 11.78 13.8 26 32 1022.7 0.4 26.2 30.5 51.5 135.5 137.4 475.3
06/05 12:10 16.4 86 12 14 22 26 1022.9 0.4 26.7 31.2 53.0 139.6 142.2 491.9
06/05 12:00 16.2 90 12.41 14.5 20 22 1023.1 0.4 27.6 32.0 55.0 144.9 148.6 514.1
06/05 11:50 15.8 90 12.11 14.1 24 26 1023.3 0.4 27.0 31.6 54.0 142.1 145.0 501.5
06/05 11:40 15.5 83 10.97 12.6 32 37 1023.3 0.4 24.5 29.7 49.2 129.3 129.2 446.3
06/05 11:30 17 79 11.43 13.3 24 32 1023.3 0.4 25.4 30.0 50.2 132.1 133.1 460.1
06/05 11:20 17.5 83 12.37 14.7 19 22 1023.4 0.4 27.4 31.5 53.9 142.0 145.5 503.6
06/05 11:10 16.7 86 12.22 14.3 19 22 1023.4 0.4 27.1 31.5 53.8 141.7 144.9 501.3
06/05 11:00 16.7 89 12.65 14.9 26 35 1023.4 0.4 28.1 32.3 55.7 146.8 151.1 523.1
06/05 10:50 16.2 92 12.69 14.9 24 32 1023.5 0.4 28.2 32.5 56.3 148.3 152.7 528.6
06/05 09:10 17 78 11.29 13.1 20 26 1023.1 0 25.1 29.7 49.6 130.4 131.1 453.2
06/05 09:00 16.7 79 11.23 13 20 26 1023.2 0 25.0 29.7 49.5 130.3 130.8 452.0
06/05 08:50 16.3 81 11.24 13 20 22 1023.2 0 25.1 29.9 49.8 131.1 131.6 454.9
06/05 08:40 15.9 84 11.38 13.3 15 19 1023.2 0 25.4 30.3 50.7 133.4 134.3 464.2
06/05 08:30 15.5 86 11.37 13.2 13 17 1023.2 0 25.4 30.4 50.9 133.9 134.9 466.1
06/05 08:20 14.7 89 11.21 12.9 13 13 1023 0 25.1 30.4 50.7 133.4 134.0 462.8
06/05 08:10 14 89 10.74 12.2 15 17 1023.1 0 24.1 29.8 49.1 129.1 128.4 443.4
06/05 08:00 13.9 89 10.67 12.1 13 17 1023.2 0 24.0 29.7 48.9 128.5 127.6 440.6
06/05 07:50 13.8 89 10.6 12.1 15 17 1023 0 23.9 29.6 48.6 127.8 126.8 437.6
06/05 07:40 13.6 89 10.47 11.8 13 15 1022.9 0 23.6 29.5 48.2 126.7 125.2 432.2
06/05 07:30 13.7 89 10.54 11.9 15 20 1022.9 0 23.7 29.6 48.4 127.3 126.1 435.1
06/05 07:20 13.5 90 10.53 11.9 17 19 1022.8 0 23.7 29.6 48.5 127.5 126.2 435.7
06/05 07:10 13.3 90 10.4 11.7 15 17 1022.7 0 23.5 29.4 48.0 126.3 124.7 430.3
06/05 07:00 13.3 90 10.4 11.7 13 19 1022.7 0 23.5 29.4 48.0 126.3 124.7 430.3
06/05 06:50 13.2 90 10.33 11.6 15 17 1022.6 0 23.3 29.4 47.8 125.7 123.9 427.3
06/05 06:40 13 90 10.21 11.4 15 17 1022.7 0 23.1 29.2 47.4 124.6 122.5 422.5
06/05 06:30 12.9 91 10.26 11.5 13 19 1022.7 0 23.2 29.3 47.7 125.3 123.4 425.5
06/05 06:20 12.9 92 10.37 11.6 11 13 1022.6 0 23.4 29.5 48.2 126.6 124.9 431.0
06/05 06:10 12.6 93 10.29 11.5 11 13 1022.5 0 23.3 29.5 48.0 126.2 124.3 428.6
06/05 06:00 12.5 93 10.23 11.4 11 13 1022.5 0 23.1 29.4 47.8 125.6 123.6 426.2
06/05 05:50 12.2 92 9.93 10.9 9 9 1022.5 0 22.5 29.0 46.7 122.6 119.7 412.8

Last Refresh: 07-May-2026 00:02:03

Bureau of Meteorology